Time;durP1;ratioP1;P1;durP2;ratioP2;P2;SDS_P1;SDS_P2;PMS_P1;PMS_P2;Temp;Humidity;BMP_temperature;BMP_pressure;BME280_temperature;BME280_humidity;BME280_pressure;Samples;Min_cycle;Max_cycle;Signal;HPM_P1;HPM_P2
2023/04/29 00:00:05;;;;;;;50.67;24.70;;;9.50;99.90;;;;;;5045806;28;37511;-78
2023/04/29 00:02:32;;;;;;;44.00;24.50;;;9.50;99.90;;;;;;5040259;28;37567;-77
2023/04/29 00:04:58;;;;;;;41.00;25.47;;;9.50;99.90;;;;;;5037226;28;38270;-77
2023/04/29 00:07:24;;;;;;;50.03;24.77;;;9.60;99.90;;;;;;5035556;28;37792;-77
2023/04/29 00:09:50;;;;;;;47.58;23.85;;;9.60;99.90;;;;;;5038417;28;36914;-77
2023/04/29 00:12:17;;;;;;;42.65;24.67;;;9.50;99.90;;;;;;5042437;28;38438;-77
2023/04/29 00:14:43;;;;;;;41.50;22.33;;;9.50;99.90;;;;;;5038580;28;38900;-77
2023/04/29 00:17:09;;;;;;;40.33;23.10;;;9.50;99.90;;;;;;5031437;28;39339;-77
2023/04/29 00:19:35;;;;;;;46.40;23.73;;;9.50;99.90;;;;;;5035109;28;36480;-77
2023/04/29 00:22:01;;;;;;;37.60;22.42;;;9.50;99.90;;;;;;5063773;28;40068;-77
2023/04/29 00:24:27;;;;;;;40.28;21.00;;;9.60;99.90;;;;;;5039415;28;47214;-77
2023/04/29 00:26:53;;;;;;;38.08;19.67;;;9.60;99.90;;;;;;5043694;28;37233;-77
2023/04/29 00:29:19;;;;;;;45.33;22.13;;;9.50;99.90;;;;;;5061470;28;36075;-78
2023/04/29 00:31:45;;;;;;;51.92;21.13;;;9.60;99.90;;;;;;5067796;28;38621;-77
2023/04/29 00:34:11;;;;;;;43.53;21.90;;;9.60;99.90;;;;;;5046611;28;38301;-77
2023/04/29 00:36:37;;;;;;;37.78;22.27;;;9.60;99.90;;;;;;5055453;28;36946;-77
2023/04/29 00:39:04;;;;;;;39.95;21.52;;;9.60;99.90;;;;;;5064378;28;36389;-77
2023/04/29 00:41:31;;;;;;;44.97;22.08;;;9.50;99.90;;;;;;5063906;28;38985;-78
2023/04/29 00:43:57;;;;;;;38.20;21.77;;;9.50;99.90;;;;;;5062244;28;38288;-77
2023/04/29 00:46:23;;;;;;;45.97;22.63;;;9.40;99.90;;;;;;5052151;28;38658;-77
2023/04/29 00:48:49;;;;;;;42.22;23.30;;;9.50;99.90;;;;;;5039018;28;37294;-77
2023/04/29 00:51:16;;;;;;;38.73;22.37;;;9.50;99.90;;;;;;5044462;28;37014;-78
2023/04/29 00:53:43;;;;;;;44.45;23.80;;;9.50;99.90;;;;;;5046314;28;39390;-77
2023/04/29 00:56:10;;;;;;;37.15;22.52;;;9.50;99.90;;;;;;5043986;28;37670;-78
2023/04/29 00:58:38;;;;;;;38.83;23.42;;;9.40;99.90;;;;;;5037595;28;36591;-77
2023/04/29 01:03:40;;;;;;;33.22;21.92;;;9.40;99.90;;;;;;3380193;22;19925;-76
2023/04/29 01:06:27;;;;;;;41.60;25.50;;;9.40;99.90;;;;;;5001179;28;37118;-75
2023/04/29 01:09:18;;;;;;;38.00;23.30;;;9.40;99.90;;;;;;5003526;28;37215;-76
2023/04/29 01:11:53;;;;;;;43.78;24.17;;;9.40;99.90;;;;;;5019332;28;46922;-75
2023/04/29 01:14:33;;;;;;;;;;;;;;;;;;;;;
2023/04/29 01:17:19;;;;;;;42.88;23.73;;;9.40;99.90;;;;;;5011201;28;38480;-76
2023/04/29 01:19:55;;;;;;;39.20;23.40;;;9.50;99.90;;;;;;5008598;28;48107;-76
2023/04/29 01:22:22;;;;;;;36.08;24.77;;;9.40;99.90;;;;;;5032232;28;38924;-74
2023/04/29 01:24:48;;;;;;;29.30;21.58;;;9.30;99.90;;;;;;5024485;28;38310;-76
2023/04/29 01:27:29;;;;;;;34.50;20.63;;;9.30;99.90;;;;;;5024560;28;38053;-75
2023/04/29 01:30:17;;;;;;;28.37;20.73;;;9.20;99.90;;;;;;5017117;28;37933;-75
2023/04/29 01:33:05;;;;;;;30.95;20.02;;;9.20;99.90;;;;;;5002072;28;48976;-75
2023/04/29 01:35:50;;;;;;;31.10;20.42;;;9.20;99.90;;;;;;5027673;28;48303;-75
2023/04/29 01:38:40;;;;;;;41.90;21.37;;;9.20;99.90;;;;;;5016173;28;36644;-76
2023/04/29 01:41:12;;;;;;;31.03;19.53;;;9.20;99.90;;;;;;5027583;28;38009;-76
2023/04/29 01:43:39;;;;;;;35.28;20.10;;;9.20;99.90;;;;;;5020849;28;37662;-76
2023/04/29 01:46:08;;;;;;;31.08;20.52;;;9.20;99.90;;;;;;5013960;28;40244;-76
2023/04/29 01:48:36;;;;;;;33.27;21.97;;;9.20;99.90;;;;;;5023503;28;37891;-76
2023/04/29 01:51:02;;;;;;;35.30;20.73;;;9.20;99.90;;;;;;5007158;28;37982;-76
2023/04/29 01:53:28;;;;;;;33.72;20.27;;;9.20;99.90;;;;;;5020170;28;38526;-76
2023/04/29 01:55:54;;;;;;;32.10;20.92;;;9.20;99.90;;;;;;5024678;28;38163;-75
2023/04/29 01:58:21;;;;;;;34.05;21.75;;;9.20;99.90;;;;;;5019366;28;36707;-76
2023/04/29 02:00:47;;;;;;;34.45;22.13;;;9.20;99.90;;;;;;5033132;28;36346;-76
2023/04/29 02:03:13;;;;;;;27.63;19.70;;;9.20;99.90;;;;;;5018382;28;38704;-75
2023/04/29 02:05:39;;;;;;;34.07;22.83;;;9.20;99.90;;;;;;5024443;28;38264;-76
2023/04/29 02:08:06;;;;;;;31.42;20.80;;;9.20;99.90;;;;;;5002649;28;37717;-76
2023/04/29 02:10:32;;;;;;;34.83;21.75;;;9.20;99.90;;;;;;5007435;28;38043;-76
2023/04/29 02:12:58;;;;;;;31.85;22.50;;;9.20;99.90;;;;;;4994482;28;37780;-76
2023/04/29 02:15:28;;;;;;;34.30;21.85;;;9.20;99.90;;;;;;4997578;28;38433;-76
2023/04/29 02:17:54;;;;;;;33.97;22.77;;;9.20;99.90;;;;;;4998470;28;37112;-76
2023/04/29 02:20:20;;;;;;;29.03;19.87;;;9.20;99.90;;;;;;4999588;28;37721;-75
2023/04/29 02:22:46;;;;;;;32.33;20.83;;;9.20;99.90;;;;;;5001115;28;37576;-76
2023/04/29 02:25:12;;;;;;;31.20;20.50;;;9.20;99.90;;;;;;5009796;28;37152;-76
2023/04/29 02:27:38;;;;;;;34.45;22.00;;;9.20;99.90;;;;;;5001809;28;37045;-76
2023/04/29 02:30:05;;;;;;;36.30;22.20;;;9.20;99.90;;;;;;4999972;28;35158;-76
2023/04/29 02:32:31;;;;;;;29.73;21.67;;;9.20;99.90;;;;;;5015870;28;46996;-76
2023/04/29 02:34:58;;;;;;;33.90;21.77;;;9.30;99.90;;;;;;5019069;28;37027;-76
2023/04/29 02:37:24;;;;;;;31.83;21.20;;;9.20;99.90;;;;;;5015233;28;36744;-76
2023/04/29 02:39:50;;;;;;;28.57;21.23;;;9.30;99.90;;;;;;5022421;28;36431;-76
2023/04/29 02:42:16;;;;;;;27.60;19.83;;;9.30;99.90;;;;;;5019234;28;37087;-75
2023/04/29 02:44:42;;;;;;;32.50;20.20;;;9.30;99.90;;;;;;5024914;28;38194;-77
2023/04/29 02:47:08;;;;;;;29.42;20.20;;;9.30;99.90;;;;;;5025314;28;36633;-76
2023/04/29 02:49:34;;;;;;;28.43;20.33;;;9.30;99.90;;;;;;5026032;28;37991;-75
2023/04/29 02:52:01;;;;;;;25.33;18.20;;;9.30;99.90;;;;;;5013187;28;38006;-76
2023/04/29 02:54:27;;;;;;;28.52;20.48;;;9.30;99.90;;;;;;5022386;28;46658;-76
2023/04/29 02:56:53;;;;;;;28.85;20.08;;;9.40;99.90;;;;;;5018787;28;37606;-76
2023/04/29 02:59:19;;;;;;;28.37;21.83;;;9.40;99.90;;;;;;5015808;28;36480;-76
2023/04/29 03:01:46;;;;;;;32.97;19.90;;;9.40;99.90;;;;;;5018228;28;37580;-76
2023/04/29 03:04:12;;;;;;;27.70;21.52;;;9.40;99.90;;;;;;5023184;28;38166;-76
2023/04/29 03:06:39;;;;;;;31.75;20.88;;;9.40;99.90;;;;;;5037215;28;36573;-76
2023/04/29 03:09:05;;;;;;;31.02;20.70;;;9.40;99.90;;;;;;5025264;28;36967;-76
2023/04/29 03:11:31;;;;;;;27.50;18.65;;;9.40;99.90;;;;;;5023825;28;37749;-76
2023/04/29 03:13:57;;;;;;;29.60;18.92;;;9.40;99.90;;;;;;5025739;28;38530;-76
2023/04/29 03:16:23;;;;;;;21.88;17.15;;;9.40;99.90;;;;;;5020960;28;36658;-76
2023/04/29 03:18:50;;;;;;;24.80;16.73;;;9.40;99.90;;;;;;5017059;28;37017;-76
2023/04/29 03:21:16;;;;;;;23.40;16.17;;;9.40;99.90;;;;;;5021159;28;39201;-76
2023/04/29 03:23:43;;;;;;;27.70;16.35;;;9.40;99.90;;;;;;5026658;28;37512;-76
2023/04/29 03:26:10;;;;;;;29.90;18.48;;;9.40;99.90;;;;;;5020906;28;39235;-76
2023/04/29 03:28:36;;;;;;;22.45;15.68;;;9.40;99.90;;;;;;5024390;28;37848;-76
2023/04/29 03:31:02;;;;;;;21.25;16.50;;;9.40;99.90;;;;;;5020353;28;38613;-75
2023/04/29 03:33:28;;;;;;;23.98;16.77;;;9.50;99.90;;;;;;5022147;28;46826;-76
2023/04/29 03:35:54;;;;;;;28.33;17.10;;;9.50;99.90;;;;;;5026624;28;37708;-76
2023/04/29 03:38:21;;;;;;;22.67;15.57;;;9.50;99.90;;;;;;5023637;28;36238;-75
2023/04/29 03:40:47;;;;;;;23.63;15.38;;;9.50;99.90;;;;;;5029605;28;37532;-75
2023/04/29 03:43:13;;;;;;;24.30;15.43;;;9.50;99.90;;;;;;5025016;28;37603;-75
2023/04/29 03:45:39;;;;;;;22.17;15.73;;;9.50;99.90;;;;;;5011795;28;37957;-75
2023/04/29 03:48:06;;;;;;;25.63;15.80;;;9.40;99.90;;;;;;4998674;28;37493;-75
2023/04/29 03:50:32;;;;;;;21.17;14.93;;;9.40;99.90;;;;;;5009364;28;40363;-77
2023/04/29 03:52:59;;;;;;;26.15;16.98;;;9.40;99.90;;;;;;5004475;28;37282;-74
2023/04/29 03:55:25;;;;;;;27.10;17.05;;;9.50;99.90;;;;;;4999443;28;37770;-75
2023/04/29 03:57:51;;;;;;;24.23;16.27;;;9.50;99.90;;;;;;5036400;28;37544;-76
2023/04/29 04:00:17;;;;;;;23.93;16.60;;;9.50;99.90;;;;;;5001478;28;38769;-75
2023/04/29 04:02:44;;;;;;;21.40;15.75;;;9.50;99.90;;;;;;5019227;28;39378;-76
2023/04/29 04:05:10;;;;;;;24.67;16.65;;;9.50;99.90;;;;;;5023851;28;36767;-76
2023/04/29 04:07:36;;;;;;;21.27;16.17;;;9.50;99.90;;;;;;5026893;28;38507;-75
2023/04/29 04:10:02;;;;;;;23.97;15.67;;;9.50;99.90;;;;;;5026152;28;39482;-74
2023/04/29 04:12:28;;;;;;;22.98;17.52;;;9.50;99.90;;;;;;5022269;28;38262;-75
2023/04/29 04:14:54;;;;;;;25.02;15.25;;;9.50;99.90;;;;;;5026415;28;36570;-76
2023/04/29 04:17:20;;;;;;;22.08;16.55;;;9.50;99.90;;;;;;5022484;28;37159;-75
2023/04/29 04:19:46;;;;;;;31.80;16.90;;;9.60;99.90;;;;;;5024487;28;39842;-76
2023/04/29 04:22:12;;;;;;;21.15;14.93;;;9.60;99.90;;;;;;5026125;28;37495;-76
2023/04/29 04:24:38;;;;;;;25.27;16.92;;;9.60;99.90;;;;;;5028162;28;36936;-76
2023/04/29 04:27:06;;;;;;;26.45;16.15;;;9.60;99.90;;;;;;5022137;28;38117;-76
2023/04/29 04:29:32;;;;;;;24.17;16.10;;;9.60;99.90;;;;;;5024790;28;37688;-76
2023/04/29 04:31:58;;;;;;;22.15;15.00;;;9.60;99.90;;;;;;5025682;28;37406;-76
2023/04/29 04:34:25;;;;;;;19.52;14.68;;;9.70;99.90;;;;;;5025525;28;37730;-76
2023/04/29 04:36:51;;;;;;;25.10;15.50;;;9.60;99.90;;;;;;5025381;28;37614;-76
2023/04/29 04:39:17;;;;;;;21.00;14.82;;;9.60;99.90;;;;;;5026515;28;39776;-76
2023/04/29 04:41:43;;;;;;;25.52;17.58;;;9.60;99.90;;;;;;5025548;28;38199;-76
2023/04/29 04:44:09;;;;;;;26.15;16.15;;;9.60;99.90;;;;;;5023828;28;36677;-76
2023/04/29 04:46:36;;;;;;;23.98;15.63;;;9.70;99.90;;;;;;5029572;28;37123;-76
2023/04/29 04:49:02;;;;;;;24.90;16.58;;;9.70;99.90;;;;;;5021143;28;39873;-76
2023/04/29 04:51:28;;;;;;;26.88;16.40;;;9.70;99.90;;;;;;5024192;28;37410;-76
2023/04/29 04:53:54;;;;;;;23.88;15.73;;;9.70;99.90;;;;;;5037029;28;37793;-76
2023/04/29 04:56:21;;;;;;;22.45;15.90;;;9.70;99.90;;;;;;5022999;28;37146;-76
2023/04/29 04:58:47;;;;;;;24.17;15.95;;;9.70;99.90;;;;;;5021223;28;37775;-75
2023/04/29 05:01:13;;;;;;;29.60;16.70;;;9.70;99.90;;;;;;5021387;28;38273;-76
2023/04/29 05:03:39;;;;;;;24.23;15.43;;;9.80;99.90;;;;;;5024869;28;37037;-76
2023/04/29 05:06:05;;;;;;;22.70;14.63;;;9.80;99.90;;;;;;5019775;28;36281;-76
2023/04/29 05:08:31;;;;;;;22.05;15.30;;;9.80;99.90;;;;;;5019160;28;37543;-75
2023/04/29 05:10:57;;;;;;;25.08;15.25;;;9.80;99.90;;;;;;5016197;28;39128;-76
2023/04/29 05:13:27;;;;;;;24.23;15.75;;;9.80;99.90;;;;;;5021544;28;37649;-76
2023/04/29 05:15:53;;;;;;;24.00;15.07;;;9.80;99.90;;;;;;5017843;28;36707;-76
2023/04/29 05:18:19;;;;;;;23.65;15.15;;;9.90;99.90;;;;;;5029862;28;37977;-76
2023/04/29 05:20:45;;;;;;;26.10;14.82;;;9.90;99.90;;;;;;5033361;28;37297;-76
2023/04/29 05:23:11;;;;;;;19.75;13.80;;;9.90;99.90;;;;;;5018153;28;38222;-76
2023/04/29 05:25:37;;;;;;;25.02;15.38;;;10.00;99.90;;;;;;5021588;28;37350;-76
2023/04/29 05:28:06;;;;;;;21.45;14.75;;;10.00;99.90;;;;;;5017254;28;37541;-76
2023/04/29 05:30:32;;;;;;;26.95;16.50;;;10.00;99.90;;;;;;5018359;28;38498;-75
2023/04/29 05:32:58;;;;;;;26.35;15.73;;;10.10;99.90;;;;;;5019133;28;34951;-75
2023/04/29 05:35:25;;;;;;;29.13;15.57;;;10.00;99.90;;;;;;5018328;28;38386;-76
2023/04/29 05:37:51;;;;;;;22.52;15.45;;;10.10;99.90;;;;;;5014366;28;36473;-75
2023/04/29 05:40:17;;;;;;;31.70;16.35;;;10.10;99.90;;;;;;5017075;28;38300;-75
2023/04/29 05:42:43;;;;;;;24.95;15.05;;;10.10;99.90;;;;;;5017165;28;41069;-77
2023/04/29 05:45:11;;;;;;;24.13;15.23;;;10.10;99.90;;;;;;5017837;28;39900;-75
2023/04/29 05:47:37;;;;;;;28.13;16.50;;;10.10;99.90;;;;;;5016992;28;39361;-77
2023/04/29 05:50:03;;;;;;;27.60;15.63;;;10.10;99.90;;;;;;5018769;28;40576;-75
2023/04/29 05:52:29;;;;;;;25.40;16.10;;;10.20;99.90;;;;;;5016072;28;36391;-74
2023/04/29 05:54:56;;;;;;;32.58;15.48;;;10.20;99.90;;;;;;5018107;28;37304;-76
2023/04/29 05:57:22;;;;;;;22.33;15.45;;;10.20;99.90;;;;;;5018979;28;37417;-76
2023/04/29 05:59:48;;;;;;;34.15;17.92;;;10.20;99.90;;;;;;5015410;28;39008;-75
2023/04/29 06:02:15;;;;;;;27.23;15.95;;;10.30;99.90;;;;;;5033562;28;36807;-75
2023/04/29 06:04:41;;;;;;;31.30;17.13;;;10.30;99.90;;;;;;5020241;28;36308;-75
2023/04/29 06:07:08;;;;;;;29.08;18.05;;;10.20;99.90;;;;;;5020596;28;38533;-76
2023/04/29 06:09:37;;;;;;;32.33;17.75;;;10.20;99.90;;;;;;5020772;28;38567;-77
2023/04/29 06:12:03;;;;;;;32.83;18.50;;;10.30;99.90;;;;;;5007342;28;37719;-76
2023/04/29 06:14:29;;;;;;;25.63;17.55;;;10.30;99.90;;;;;;5017677;28;37341;-76
2023/04/29 06:16:55;;;;;;;30.52;17.35;;;10.40;99.90;;;;;;5021606;28;38574;-77
2023/04/29 06:19:22;;;;;;;29.25;18.52;;;10.40;99.90;;;;;;5012369;28;36445;-76
2023/04/29 06:21:48;;;;;;;30.10;18.23;;;10.50;99.90;;;;;;5017273;28;38076;-76
2023/04/29 06:24:14;;;;;;;27.45;17.67;;;10.60;99.90;;;;;;5022379;28;36496;-75
2023/04/29 06:26:44;;;;;;;33.15;20.05;;;10.70;99.90;;;;;;5021988;28;38567;-74
2023/04/29 06:29:11;;;;;;;30.25;20.00;;;10.70;99.90;;;;;;5018310;28;38685;-75
2023/04/29 06:31:38;;;;;;;26.52;18.80;;;10.60;99.90;;;;;;5020901;28;20055;-76
2023/04/29 06:34:04;;;;;;;31.05;18.35;;;10.60;99.90;;;;;;5017460;28;37360;-76
2023/04/29 06:36:31;;;;;;;32.53;18.70;;;10.60;99.90;;;;;;5017742;28;38540;-76
2023/04/29 06:38:57;;;;;;;34.85;17.98;;;10.60;99.90;;;;;;5016834;28;38086;-75
2023/04/29 06:41:23;;;;;;;25.98;17.73;;;10.70;99.90;;;;;;5015519;28;38023;-76
2023/04/29 06:43:49;;;;;;;25.63;16.90;;;10.80;99.90;;;;;;5025358;28;37393;-75
2023/04/29 06:46:16;;;;;;;25.83;16.95;;;10.80;99.90;;;;;;5027443;28;39018;-76
2023/04/29 06:48:42;;;;;;;24.15;15.68;;;10.90;99.90;;;;;;5020778;28;37443;-77
2023/04/29 06:51:08;;;;;;;31.05;17.02;;;10.90;99.90;;;;;;5023507;28;38675;-76
2023/04/29 06:53:34;;;;;;;28.45;15.73;;;11.00;99.90;;;;;;5023141;28;37971;-74
2023/04/29 06:56:00;;;;;;;28.77;15.85;;;11.20;99.90;;;;;;5021627;28;38772;-75
2023/04/29 06:58:26;;;;;;;22.67;14.95;;;11.30;99.90;;;;;;5022279;28;38588;-75
2023/04/29 07:00:52;;;;;;;24.88;15.98;;;11.40;99.90;;;;;;5022447;28;37647;-75
2023/04/29 07:03:18;;;;;;;24.95;14.98;;;11.70;99.90;;;;;;5011572;28;36223;-74
2023/04/29 07:05:45;;;;;;;20.05;13.20;;;11.90;99.90;;;;;;5019896;28;39995;-74
2023/04/29 07:08:12;;;;;;;23.25;12.98;;;11.80;99.90;;;;;;5018849;28;37356;-74
2023/04/29 07:10:38;;;;;;;17.40;12.80;;;11.60;99.90;;;;;;5016893;28;36794;-75
2023/04/29 07:13:04;;;;;;;21.23;14.25;;;11.60;99.90;;;;;;5020172;28;38189;-75
2023/04/29 07:15:33;;;;;;;17.90;13.02;;;11.70;99.90;;;;;;5012343;28;39584;-75
2023/04/29 07:18:00;;;;;;;17.60;12.40;;;11.80;99.90;;;;;;5014308;28;38190;-73
2023/04/29 07:20:26;;;;;;;16.27;11.20;;;12.00;99.90;;;;;;5007387;28;38724;-74
2023/04/29 07:22:52;;;;;;;18.13;12.85;;;12.10;99.90;;;;;;5024500;28;36205;-74
2023/04/29 07:25:18;;;;;;;21.25;12.32;;;12.10;99.90;;;;;;5011060;28;39701;-74
2023/04/29 07:27:44;;;;;;;20.45;12.48;;;12.10;99.90;;;;;;5022050;28;37051;-74
2023/04/29 07:30:10;;;;;;;13.30;10.75;;;12.20;99.90;;;;;;5010860;28;37554;-74
2023/04/29 07:32:36;;;;;;;17.00;11.68;;;12.30;99.90;;;;;;5017550;28;37015;-74
2023/04/29 07:35:03;;;;;;;15.80;11.35;;;12.30;99.90;;;;;;5025155;28;37529;-74
2023/04/29 07:37:29;;;;;;;17.17;11.10;;;12.50;99.90;;;;;;5020842;28;38408;-73
2023/04/29 07:39:55;;;;;;;17.75;10.68;;;12.60;99.90;;;;;;5021932;28;36516;-74
2023/04/29 07:42:21;;;;;;;16.48;10.45;;;12.50;99.90;;;;;;5031656;28;36295;-74
2023/04/29 07:44:47;;;;;;;16.98;11.85;;;12.70;99.90;;;;;;5022212;28;38942;-73
2023/04/29 07:47:13;;;;;;;16.45;11.52;;;13.10;99.90;;;;;;5012259;28;39392;-73
2023/04/29 07:49:40;;;;;;;18.23;10.68;;;13.30;99.90;;;;;;5017008;28;37381;-73
2023/04/29 07:52:08;;;;;;;17.05;11.15;;;13.30;99.90;;;;;;5030859;28;37245;-73
2023/04/29 07:54:37;;;;;;;15.38;9.88;;;13.30;99.90;;;;;;5015761;28;38570;-74
2023/04/29 07:57:04;;;;;;;13.13;9.48;;;13.40;99.90;;;;;;5019723;28;38314;-75
2023/04/29 07:59:31;;;;;;;18.13;10.93;;;13.80;99.90;;;;;;5018754;28;38363;-77
2023/04/29 08:01:57;;;;;;;14.27;9.82;;;14.10;99.90;;;;;;5018204;28;36784;-75
2023/04/29 08:04:24;;;;;;;14.55;9.20;;;13.80;99.90;;;;;;5016742;28;39461;-78
2023/04/29 08:06:50;;;;;;;13.90;8.98;;;13.70;99.90;;;;;;5016047;28;37802;-75
2023/04/29 08:09:16;;;;;;;15.02;9.70;;;13.70;99.90;;;;;;5017990;28;37652;-76
2023/04/29 08:11:43;;;;;;;11.77;9.23;;;13.60;99.90;;;;;;5026744;28;35927;-75
2023/04/29 08:14:10;;;;;;;13.00;8.93;;;13.40;99.90;;;;;;5024904;28;38787;-76
2023/04/29 08:16:36;;;;;;;12.07;9.50;;;13.30;99.90;;;;;;5026442;28;37958;-75
2023/04/29 08:19:02;;;;;;;10.40;8.13;;;13.60;99.90;;;;;;5020814;28;36759;-77
2023/04/29 08:21:28;;;;;;;13.65;7.63;;;14.00;99.90;;;;;;5017624;28;37141;-77
2023/04/29 08:23:55;;;;;;;11.07;7.05;;;14.40;99.90;;;;;;5024284;28;40041;-79
2023/04/29 08:26:21;;;;;;;12.15;7.18;;;14.60;99.90;;;;;;5014097;28;37581;-78
2023/04/29 08:28:47;;;;;;;10.65;6.70;;;14.80;99.90;;;;;;5015195;28;36918;-79
2023/04/29 08:31:20;;;;;;;10.73;6.45;;;14.90;99.90;;;;;;5022336;28;36317;-79
2023/04/29 08:33:47;;;;;;;8.35;5.45;;;14.90;99.90;;;;;;5009871;28;40520;-79
2023/04/29 08:36:13;;;;;;;15.75;8.13;;;14.90;99.90;;;;;;5013098;28;39369;-80
2023/04/29 08:38:40;;;;;;;12.32;6.70;;;14.50;99.90;;;;;;5009638;28;36813;-79
2023/04/29 08:41:11;;;;;;;10.45;6.68;;;14.30;99.90;;;;;;5026430;28;37248;-78
2023/04/29 08:43:39;;;;;;;10.38;6.80;;;14.40;99.90;;;;;;5018605;28;39629;-78
2023/04/29 08:46:06;;;;;;;11.60;6.72;;;15.10;99.90;;;;;;5020288;28;38654;-78
2023/04/29 08:48:34;;;;;;;12.60;6.10;;;15.30;99.90;;;;;;5009247;28;37983;-79
2023/04/29 08:51:01;;;;;;;9.45;5.88;;;14.70;99.90;;;;;;5013527;28;37781;-78
2023/04/29 08:53:27;;;;;;;13.13;6.88;;;14.20;99.90;;;;;;5027980;28;39878;-77
2023/04/29 08:55:55;;;;;;;14.13;6.93;;;13.80;99.90;;;;;;5017364;28;37129;-76
2023/04/29 08:58:25;;;;;;;8.18;6.15;;;13.40;99.90;;;;;;5017276;28;36790;-75
2023/04/29 09:00:51;;;;;;;11.90;6.20;;;13.40;99.90;;;;;;5024266;28;38171;-77
2023/04/29 09:03:32;;;;;;;14.32;6.43;;;13.80;99.90;;;;;;5019146;28;39838;-77
2023/04/29 09:06:02;;;;;;;9.10;6.22;;;14.50;99.90;;;;;;5013221;28;38643;-78
2023/04/29 09:08:29;;;;;;;13.15;6.00;;;15.00;99.90;;;;;;5021045;28;47720;-77
2023/04/29 09:10:56;;;;;;;10.88;4.55;;;15.20;99.90;;;;;;5005790;28;37162;-75
2023/04/29 09:13:29;;;;;;;10.88;5.20;;;15.10;99.90;;;;;;5009773;28;38562;-79
2023/04/29 09:15:56;;;;;;;11.13;5.88;;;15.20;99.90;;;;;;5030240;28;37137;-77
2023/04/29 09:18:41;;;;;;;11.10;5.90;;;15.40;99.90;;;;;;5021308;28;37750;-76
2023/04/29 09:21:24;;;;;;;11.60;5.82;;;15.60;99.90;;;;;;5028350;28;37319;-76
2023/04/29 09:23:53;;;;;;;10.02;5.38;;;15.70;99.90;;;;;;5023653;28;39421;-75
2023/04/29 09:26:19;;;;;;;11.70;5.80;;;15.90;99.90;;;;;;5025690;28;37640;-75
2023/04/29 09:28:46;;;;;;;10.10;4.68;;;16.30;99.90;;;;;;5015408;28;36736;-75
2023/04/29 09:31:13;;;;;;;9.38;4.55;;;16.20;99.90;;;;;;5016676;28;35978;-75
2023/04/29 09:33:57;;;;;;;8.68;5.22;;;16.00;99.90;;;;;;5029985;28;37658;-77
2023/04/29 09:36:45;;;;;;;9.32;5.40;;;16.20;99.90;;;;;;5014249;28;38649;-78
2023/04/29 09:39:15;;;;;;;10.07;4.78;;;16.60;99.90;;;;;;5004316;28;35455;-77
2023/04/29 09:41:51;;;;;;;8.73;4.22;;;16.80;99.90;;;;;;5016137;28;37510;-76
2023/04/29 09:44:22;;;;;;;8.48;4.00;;;16.50;99.90;;;;;;5016058;28;37609;-77
2023/04/29 09:47:09;;;;;;;7.38;4.68;;;16.50;99.90;;;;;;5018591;28;38293;-76
2023/04/29 09:49:39;;;;;;;7.78;5.38;;;17.00;99.90;;;;;;5021086;28;48107;-79
2023/04/29 09:52:11;;;;;;;7.32;4.28;;;16.70;99.90;;;;;;5031324;28;37524;-83
2023/04/29 09:54:39;;;;;;;8.10;4.53;;;16.20;99.90;;;;;;5025692;28;38453;-82
2023/04/29 09:57:07;;;;;;;9.57;4.28;;;15.90;99.90;;;;;;5021319;28;39101;-85
2023/04/29 09:59:36;;;;;;;11.13;4.60;;;15.70;99.90;;;;;;5013963;28;37723;-84
2023/04/29 10:02:14;;;;;;;8.73;5.07;;;15.90;99.90;;;;;;5022833;28;36977;-82
2023/04/29 10:04:43;;;;;;;8.15;4.72;;;16.70;99.90;;;;;;5015550;28;38923;-76
2023/04/29 10:07:16;;;;;;;13.68;5.05;;;16.80;99.90;;;;;;5019539;28;38948;-77
2023/04/29 10:09:45;;;;;;;11.80;4.78;;;16.70;99.90;;;;;;5024111;28;37565;-79
2023/04/29 10:12:15;;;;;;;9.07;4.53;;;16.60;99.90;;;;;;5038203;28;36309;-81
2023/04/29 10:15:03;;;;;;;12.30;4.90;;;16.60;99.90;;;;;;5020138;28;39756;-80
2023/04/29 10:17:36;;;;;;;9.85;4.47;;;16.70;99.90;;;;;;5020334;28;37383;-80
2023/04/29 10:20:08;;;;;;;8.00;4.45;;;16.30;99.90;;;;;;5021724;28;36502;-81
2023/04/29 10:22:50;;;;;;;10.65;4.63;;;16.00;99.90;;;;;;5017323;28;48086;-78
2023/04/29 10:25:18;;;;;;;6.43;4.85;;;15.90;99.90;;;;;;5017109;28;38148;-79
2023/04/29 10:27:46;;;;;;;7.57;5.18;;;16.10;99.90;;;;;;5023775;28;37215;-78
2023/04/29 10:30:16;;;;;;;6.70;5.40;;;16.30;99.90;;;;;;5020248;28;36825;-78
2023/04/29 10:32:44;;;;;;;10.90;5.32;;;16.60;99.90;;;;;;5030852;28;35232;-81
2023/04/29 10:35:13;;;;;;;10.13;4.90;;;16.90;99.90;;;;;;5017212;28;37841;-81
2023/04/29 10:37:41;;;;;;;8.77;5.28;;;16.80;99.90;;;;;;5029659;28;38857;-79
2023/04/29 10:40:15;;;;;;;10.20;5.05;;;16.70;99.90;;;;;;5022096;28;36709;-80
2023/04/29 10:42:41;;;;;;;9.55;5.47;;;16.70;99.90;;;;;;5025628;28;36205;-80
2023/04/29 10:45:36;;;;;;;8.93;5.45;;;17.10;99.90;;;;;;5029421;28;38781;-78
2023/04/29 10:48:05;;;;;;;9.55;5.10;;;17.60;99.90;;;;;;5027312;28;37156;-77
2023/04/29 10:50:33;;;;;;;7.97;4.72;;;17.80;99.90;;;;;;5024221;28;38588;-80
2023/04/29 10:53:03;;;;;;;8.60;4.63;;;18.20;99.90;;;;;;5024795;28;37418;-78
2023/04/29 10:55:30;;;;;;;9.68;5.40;;;18.40;99.90;;;;;;5020411;28;47265;-77
2023/04/29 10:57:57;;;;;;;7.35;5.10;;;18.60;99.90;;;;;;5028638;28;38504;-79
2023/04/29 11:00:27;;;;;;;10.00;5.32;;;18.50;99.90;;;;;;5024691;28;36447;-75
2023/04/29 11:02:54;;;;;;;6.65;4.28;;;18.40;99.90;;;;;;5020951;28;36329;-75
2023/04/29 11:05:34;;;;;;;6.13;3.88;;;18.70;99.90;;;;;;5012576;28;40033;-75
2023/04/29 11:08:11;;;;;;;6.63;4.20;;;18.80;99.90;;;;;;5036889;28;37264;-76
2023/04/29 11:10:44;;;;;;;7.05;4.45;;;19.00;99.90;;;;;;5027797;28;48768;-77
2023/04/29 11:13:29;;;;;;;;;;;19.40;99.90;;;;;;5026758;28;37869;-78
2023/04/29 11:16:09;;;;;;;6.57;4.68;;;19.30;99.90;;;;;;5026502;28;37827;-75
2023/04/29 11:18:56;;;;;;;6.55;4.57;;;18.90;99.90;;;;;;5018273;28;48863;-80
2023/04/29 11:21:22;;;;;;;7.82;4.60;;;19.50;99.90;;;;;;5016102;28;36950;-83
2023/04/29 11:23:51;;;;;;;7.72;4.00;;;20.00;99.90;;;;;;5023188;28;35879;-76
2023/04/29 11:26:20;;;;;;;10.85;4.57;;;20.10;99.90;;;;;;5021819;28;37893;-77
2023/04/29 11:28:47;;;;;;;11.73;5.28;;;19.80;99.90;;;;;;5018138;28;38814;-75
2023/04/29 11:31:13;;;;;;;7.22;4.72;;;20.00;99.90;;;;;;5022334;28;36827;-78
2023/04/29 11:33:39;;;;;;;8.30;4.10;;;20.10;99.90;;;;;;5021302;28;37139;-79
2023/04/29 11:36:05;;;;;;;6.47;4.25;;;20.00;99.90;;;;;;5019926;28;39143;-78
2023/04/29 11:38:32;;;;;;;6.43;4.32;;;20.70;99.90;;;;;;5021471;28;37468;-77
2023/04/29 11:41:00;;;;;;;9.38;4.38;;;20.80;99.90;;;;;;5021986;28;36895;-78
2023/04/29 11:43:26;;;;;;;8.95;4.78;;;20.70;99.90;;;;;;5018161;28;37621;-76
2023/04/29 11:45:52;;;;;;;10.23;4.10;;;20.70;99.90;;;;;;5024687;28;39981;-78
2023/04/29 11:48:23;;;;;;;7.35;4.85;;;20.30;99.90;;;;;;5018915;28;38493;-77
2023/04/29 11:50:53;;;;;;;9.73;5.30;;;19.80;99.90;;;;;;5021654;28;36832;-76
2023/04/29 11:53:20;;;;;;;6.82;4.85;;;18.80;99.90;;;;;;5023999;28;37437;-75
2023/04/29 11:55:47;;;;;;;8.15;4.28;;;18.00;99.90;;;;;;5024979;28;38227;-74
2023/04/29 11:58:16;;;;;;;6.07;4.57;;;18.20;99.90;;;;;;5020895;28;38419;-75
2023/04/29 12:00:44;;;;;;;7.38;4.50;;;19.00;99.90;;;;;;5014875;28;36909;-77
2023/04/29 12:03:17;;;;;;;5.50;3.95;;;19.80;99.90;;;;;;5021642;28;36349;-77
2023/04/29 12:05:53;;;;;;;8.88;4.50;;;20.30;99.90;;;;;;5022153;28;37876;-77
2023/04/29 12:08:21;;;;;;;6.75;4.45;;;20.40;99.90;;;;;;5018457;28;37621;-77
2023/04/29 12:10:48;;;;;;;8.52;4.50;;;20.70;99.90;;;;;;5026370;28;36501;-77
2023/04/29 12:13:18;;;;;;;6.57;4.40;;;20.00;99.90;;;;;;5025638;28;36186;-77
2023/04/29 12:15:49;;;;;;;10.27;4.70;;;19.30;99.90;;;;;;5020865;28;39234;-75
2023/04/29 12:18:22;;;;;;;6.60;4.33;;;18.90;99.90;;;;;;5022643;28;39046;-77
2023/04/29 12:20:50;;;;;;;;;;;19.50;99.90;;;;;;5024614;28;36876;-77
2023/04/29 12:23:27;;;;;;;8.65;3.88;;;20.30;99.90;;;;;;5023255;28;37375;-78
2023/04/29 12:25:58;;;;;;;12.32;5.03;;;20.00;99.90;;;;;;5023504;28;38752;-78
2023/04/29 12:28:26;;;;;;;15.48;5.30;;;19.30;99.90;;;;;;5017358;28;37391;-76
2023/04/29 12:30:53;;;;;;;9.07;4.60;;;19.10;99.90;;;;;;5020621;28;36490;-77
2023/04/29 12:33:21;;;;;;;11.75;5.35;;;18.90;99.90;;;;;;5021871;28;37300;-77
2023/04/29 12:35:49;;;;;;;8.23;3.80;;;19.20;99.90;;;;;;5026754;28;38725;-77
2023/04/29 12:38:19;;;;;;;14.63;5.55;;;19.50;99.90;;;;;;5012096;28;38551;-75
2023/04/29 12:40:45;;;;;;;8.57;4.28;;;19.40;99.90;;;;;;5030991;28;36971;-75
2023/04/29 12:43:11;;;;;;;11.30;5.05;;;18.90;99.90;;;;;;5002941;28;37929;-79
2023/04/29 12:45:38;;;;;;;13.93;5.07;;;18.90;99.90;;;;;;5002428;28;37648;-74